Time;durP1;ratioP1;P1;durP2;ratioP2;P2;SDS_P1;SDS_P2;PMS_P1;PMS_P2;Temp;Humidity;BMP_temperature;BMP_pressure;BME280_temperature;BME280_humidity;BME280_pressure;Samples;Min_cycle;Max_cycle;Signal;HPM_P1;HPM_P2
2021/03/16 00:01:09;;;;;;;8.48;6.95;;;;;;;;;;5029080;28;20029;-82
2021/03/16 00:03:41;;;;;;;13.95;10.70;;;;;;;;;;5011826;28;20030;-82
2021/03/16 00:06:14;;;;;;;9.75;8.63;;;;;;;;;;5010521;28;20084;-81
2021/03/16 00:08:41;;;;;;;7.10;6.03;;;;;;;;;;5026725;28;20105;-82
2021/03/16 00:11:07;;;;;;;7.53;6.00;;;;;;;;;;5027960;28;20025;-82
2021/03/16 00:13:35;;;;;;;7.43;5.63;;;;;;;;;;5029334;28;20032;-83
2021/03/16 00:16:01;;;;;;;6.85;5.90;;;;;;;;;;4995110;28;20029;-82
2021/03/16 00:18:26;;;;;;;7.97;6.22;;;;;;;;;;5011802;28;20033;-82
2021/03/16 00:20:59;;;;;;;7.28;6.40;;;;;;;;;;5011149;28;20022;-82
2021/03/16 00:23:32;;;;;;;9.15;6.25;;;;;;;;;;5012962;28;20022;-82
2021/03/16 00:26:02;;;;;;;6.95;5.57;;;;;;;;;;5028839;28;20092;-82
2021/03/16 00:28:29;;;;;;;7.43;6.18;;;;;;;;;;5013861;28;20038;-82
2021/03/16 00:30:59;;;;;;;9.50;6.28;;;;;;;;;;4995885;28;20089;-82
2021/03/16 00:33:28;;;;;;;7.70;6.00;;;;;;;;;;5012470;28;20028;-82
2021/03/16 00:35:54;;;;;;;8.77;6.63;;;;;;;;;;5012733;28;20288;-83
2021/03/16 00:38:24;;;;;;;8.32;7.45;;;;;;;;;;5006852;28;20030;-83
2021/03/16 00:41:00;;;;;;;8.57;6.55;;;;;;;;;;5026218;28;20042;-83
2021/03/16 00:43:26;;;;;;;7.30;6.60;;;;;;;;;;5012417;28;20050;-82
2021/03/16 00:45:54;;;;;;;8.75;7.13;;;;;;;;;;4995110;28;20034;-82
2021/03/16 00:48:38;;;;;;;6.78;6.07;;;;;;;;;;5029804;28;20026;-82
2021/03/16 00:51:08;;;;;;;7.88;6.53;;;;;;;;;;5022075;28;20504;-82
2021/03/16 00:53:35;;;;;;;7.45;6.22;;;;;;;;;;5012002;28;20034;-82
2021/03/16 00:56:01;;;;;;;6.20;5.60;;;;;;;;;;5031830;28;20049;-82
2021/03/16 00:58:30;;;;;;;7.90;5.85;;;;;;;;;;5016896;28;20034;-82
2021/03/16 01:00:59;;;;;;;8.07;6.68;;;;;;;;;;4993559;28;20065;-82
2021/03/16 01:03:29;;;;;;;8.63;6.55;;;;;;;;;;5015714;28;20120;-82
2021/03/16 01:05:55;;;;;;;8.38;6.53;;;;;;;;;;5014363;28;20057;-82
2021/03/16 01:08:26;;;;;;;9.95;6.63;;;;;;;;;;5014996;28;20508;-81
2021/03/16 01:10:57;;;;;;;7.47;6.63;;;;;;;;;;5031944;28;20037;-82
2021/03/16 01:13:23;;;;;;;7.40;6.70;;;;;;;;;;5015255;28;20033;-82
2021/03/16 01:15:56;;;;;;;7.90;6.45;;;;;;;;;;5029100;28;20034;-82
2021/03/16 01:18:40;;;;;;;7.10;6.20;;;;;;;;;;5033707;28;20017;-82
2021/03/16 01:21:43;;;;;;;8.40;6.60;;;;;;;;;;5017092;28;20030;-82
2021/03/16 01:24:17;;;;;;;6.68;5.97;;;;;;;;;;5030557;28;20021;-82
2021/03/16 01:26:43;;;;;;;9.00;6.20;;;;;;;;;;5057266;28;20015;-82
2021/03/16 01:29:11;;;;;;;9.35;6.53;;;;;;;;;;5053789;28;20056;-82
2021/03/16 01:31:45;;;;;;;7.15;6.15;;;;;;;;;;5037656;28;20036;-81
2021/03/16 01:34:18;;;;;;;8.20;6.40;;;;;;;;;;5055910;28;20029;-81
2021/03/16 01:36:46;;;;;;;6.97;6.22;;;;;;;;;;5054864;28;20021;-82
2021/03/16 01:39:17;;;;;;;8.02;6.57;;;;;;;;;;5072208;28;20023;-83
2021/03/16 01:41:48;;;;;;;8.63;6.05;;;;;;;;;;5070041;28;20033;-82
2021/03/16 01:44:18;;;;;;;6.68;5.97;;;;;;;;;;5055126;28;20048;-82
2021/03/16 01:46:47;;;;;;;7.30;6.22;;;;;;;;;;5055782;28;20071;-82
2021/03/16 01:49:12;;;;;;;7.30;6.15;;;;;;;;;;5037001;28;20462;-82
2021/03/16 01:51:38;;;;;;;7.65;6.50;;;;;;;;;;5002223;28;20026;-82
2021/03/16 01:54:08;;;;;;;7.60;5.97;;;;;;;;;;5034412;28;20037;-82
2021/03/16 01:56:39;;;;;;;6.50;5.82;;;;;;;;;;5019968;28;20548;-82
2021/03/16 01:59:10;;;;;;;10.65;8.60;;;;;;;;;;5020998;28;20056;-82
2021/03/16 02:01:42;;;;;;;8.32;6.20;;;;;;;;;;5036208;28;20504;-83
2021/03/16 02:04:39;;;;;;;7.25;6.03;;;;;;;;;;5021551;28;20025;-83
2021/03/16 02:08:00;;;;;;;7.30;6.50;;;;;;;;;;5030948;28;20032;-84
2021/03/16 02:10:50;;;;;;;7.28;6.40;;;;;;;;;;5018923;28;20071;-84
2021/03/16 02:13:54;;;;;;;9.60;6.72;;;;;;;;;;5039066;28;20033;-83
2021/03/16 02:16:58;;;;;;;7.65;6.82;;;;;;;;;;5057259;28;20017;-85
2021/03/16 02:20:01;;;;;;;8.63;6.40;;;;;;;;;;5057930;28;20037;-84
2021/03/16 02:22:44;;;;;;;9.10;7.18;;;;;;;;;;5056992;28;20037;-83
2021/03/16 02:25:32;;;;;;;6.97;6.28;;;;;;;;;;5054755;28;20021;-84
2021/03/16 02:28:16;;;;;;;8.48;6.60;;;;;;;;;;5056732;28;20072;-83
2021/03/16 02:31:07;;;;;;;7.38;6.45;;;;;;;;;;5057520;28;20010;-83
2021/03/16 02:34:27;;;;;;;8.20;6.68;;;;;;;;;;5057103;28;20034;-83
2021/03/16 02:37:06;;;;;;;7.65;6.28;;;;;;;;;;5014147;28;20069;-84
2021/03/16 02:40:05;;;;;;;7.78;6.30;;;;;;;;;;5012833;28;20038;-83
2021/03/16 02:42:51;;;;;;;8.50;6.13;;;;;;;;;;5000186;28;20065;-84
2021/03/16 02:45:52;;;;;;;7.93;7.00;;;;;;;;;;5014876;28;20058;-83
2021/03/16 02:48:21;;;;;;;7.55;6.43;;;;;;;;;;4961090;28;20090;-82
2021/03/16 02:50:49;;;;;;;8.38;7.18;;;;;;;;;;4979158;28;20030;-81
2021/03/16 02:53:18;;;;;;;7.57;6.65;;;;;;;;;;4980406;28;20045;-83
2021/03/16 02:55:47;;;;;;;8.63;6.90;;;;;;;;;;4995534;28;20042;-82
2021/03/16 02:58:38;;;;;;;8.93;6.75;;;;;;;;;;4994701;28;20122;-83
2021/03/16 03:01:04;;;;;;;7.87;6.67;;;;;;;;;;5011027;28;20014;-82
2021/03/16 03:03:31;;;;;;;9.30;6.70;;;;;;;;;;5010987;28;20092;-83
2021/03/16 03:06:29;;;;;;;11.70;6.53;;;;;;;;;;5005720;28;20026;-83
2021/03/16 03:09:11;;;;;;;9.35;7.55;;;;;;;;;;5011889;28;20029;-83
2021/03/16 03:12:05;;;;;;;8.10;7.30;;;;;;;;;;5011878;28;20038;-83
2021/03/16 03:14:49;;;;;;;8.38;7.47;;;;;;;;;;5011321;28;20046;-82
2021/03/16 03:17:22;;;;;;;8.77;7.15;;;;;;;;;;5012004;28;20114;-82
2021/03/16 03:20:18;;;;;;;9.73;8.20;;;;;;;;;;5012002;28;20046;-83
2021/03/16 03:23:19;;;;;;;10.52;7.55;;;;;;;;;;4997859;28;20038;-83
2021/03/16 03:26:01;;;;;;;8.73;7.82;;;;;;;;;;4994364;28;20042;-84
2021/03/16 03:28:41;;;;;;;8.15;7.35;;;;;;;;;;4964344;28;20027;-84
2021/03/16 03:31:20;;;;;;;8.57;7.38;;;;;;;;;;4930567;29;20079;-83
2021/03/16 03:33:48;;;;;;;9.23;7.88;;;;;;;;;;4950167;28;20062;-84
2021/03/16 03:36:46;;;;;;;9.80;7.35;;;;;;;;;;4979139;28;20045;-83
2021/03/16 03:39:33;;;;;;;9.35;7.30;;;;;;;;;;4992096;28;20027;-83
2021/03/16 03:42:39;;;;;;;8.95;7.88;;;;;;;;;;4992384;28;20071;-83
2021/03/16 03:45:09;;;;;;;9.65;7.55;;;;;;;;;;4993363;28;20074;-82
2021/03/16 03:47:45;;;;;;;8.38;7.28;;;;;;;;;;4975685;28;20069;-83
2021/03/16 03:50:15;;;;;;;9.13;7.32;;;;;;;;;;4986996;28;20043;-83
2021/03/16 03:52:51;;;;;;;8.77;7.87;;;;;;;;;;4990928;28;20098;-83
2021/03/16 03:55:18;;;;;;;9.52;7.03;;;;;;;;;;4976402;28;20034;-82
2021/03/16 03:57:54;;;;;;;10.90;7.88;;;;;;;;;;4974430;28;20042;-83
2021/03/16 04:00:25;;;;;;;9.95;7.30;;;;;;;;;;4974754;28;20046;-82
2021/03/16 04:02:51;;;;;;;10.48;7.35;;;;;;;;;;4991410;28;20641;-83
2021/03/16 04:05:21;;;;;;;11.43;8.15;;;;;;;;;;4975725;28;20038;-82
2021/03/16 04:07:54;;;;;;;12.25;8.15;;;;;;;;;;4989033;28;20046;-82
2021/03/16 04:10:22;;;;;;;9.05;8.15;;;;;;;;;;4991626;28;20033;-83
2021/03/16 04:12:50;;;;;;;11.20;8.18;;;;;;;;;;4989715;28;20556;-83
2021/03/16 04:15:17;;;;;;;10.82;8.98;;;;;;;;;;5002088;28;20045;-83
2021/03/16 04:17:49;;;;;;;9.20;8.25;;;;;;;;;;4999112;28;20042;-83
2021/03/16 04:20:34;;;;;;;11.95;8.57;;;;;;;;;;5031522;28;20061;-83
2021/03/16 04:23:10;;;;;;;14.85;9.40;;;;;;;;;;5014477;28;20094;-83
2021/03/16 04:25:38;;;;;;;9.68;8.65;;;;;;;;;;5032999;28;20026;-83
2021/03/16 04:28:11;;;;;;;11.57;9.27;;;;;;;;;;5014339;28;20492;-83
2021/03/16 04:30:45;;;;;;;9.95;8.88;;;;;;;;;;5016222;28;20022;-82
2021/03/16 04:33:11;;;;;;;11.10;9.10;;;;;;;;;;5032357;28;20053;-83
2021/03/16 04:35:37;;;;;;;10.73;8.88;;;;;;;;;;5032536;28;20060;-83
2021/03/16 04:38:08;;;;;;;11.45;9.27;;;;;;;;;;5031394;28;20078;-82
2021/03/16 04:40:40;;;;;;;10.27;8.68;;;;;;;;;;5016229;28;20037;-82
2021/03/16 04:43:13;;;;;;;11.77;9.38;;;;;;;;;;5016066;28;20101;-83
2021/03/16 04:45:39;;;;;;;10.63;9.32;;;;;;;;;;5015592;28;20061;-83
2021/03/16 04:48:09;;;;;;;10.82;9.50;;;;;;;;;;4998877;28;20018;-83
2021/03/16 04:50:35;;;;;;;11.77;9.63;;;;;;;;;;5018508;28;20037;-83
2021/03/16 04:53:03;;;;;;;10.88;9.25;;;;;;;;;;5018615;28;20025;-82
2021/03/16 04:55:34;;;;;;;11.25;9.40;;;;;;;;;;5018855;28;20041;-83
2021/03/16 04:58:01;;;;;;;11.98;9.80;;;;;;;;;;5020520;28;20125;-83
2021/03/16 05:01:07;;;;;;;12.13;9.95;;;;;;;;;;5051671;28;20041;-83
2021/03/16 05:03:42;;;;;;;11.35;9.63;;;;;;;;;;5037289;28;20076;-83
2021/03/16 05:06:08;;;;;;;12.02;9.82;;;;;;;;;;5033009;28;20101;-82
2021/03/16 05:08:38;;;;;;;10.40;9.15;;;;;;;;;;5050388;28;20053;-83
2021/03/16 05:11:08;;;;;;;12.93;10.40;;;;;;;;;;5051195;28;20048;-83
2021/03/16 05:13:44;;;;;;;11.85;9.73;;;;;;;;;;5034393;28;20043;-84
2021/03/16 05:16:12;;;;;;;12.10;9.88;;;;;;;;;;5031655;28;20033;-84
2021/03/16 05:18:39;;;;;;;11.23;9.57;;;;;;;;;;5050019;28;20102;-82
2021/03/16 05:21:08;;;;;;;12.88;10.15;;;;;;;;;;5050484;28;20088;-83
2021/03/16 05:23:51;;;;;;;11.45;10.27;;;;;;;;;;5030699;28;20065;-82
2021/03/16 05:26:35;;;;;;;11.23;8.93;;;;;;;;;;5032251;28;20428;-84
2021/03/16 05:29:05;;;;;;;12.13;9.80;;;;;;;;;;5066744;28;20033;-83
2021/03/16 05:31:44;;;;;;;10.50;9.40;;;;;;;;;;5055236;28;20029;-84
2021/03/16 05:34:19;;;;;;;13.15;9.68;;;;;;;;;;5046566;28;20426;-83
2021/03/16 05:36:47;;;;;;;10.77;9.25;;;;;;;;;;5057494;28;20026;-82
2021/03/16 05:39:13;;;;;;;12.63;9.95;;;;;;;;;;5025496;28;20053;-82
2021/03/16 05:41:41;;;;;;;10.80;9.48;;;;;;;;;;5013143;28;20040;-81
2021/03/16 05:44:08;;;;;;;11.45;9.18;;;;;;;;;;5032126;28;20046;-82
2021/03/16 05:46:40;;;;;;;10.38;9.05;;;;;;;;;;5034642;28;20022;-82
2021/03/16 05:49:07;;;;;;;10.35;9.25;;;;;;;;;;5069663;28;20039;-81
2021/03/16 05:51:33;;;;;;;12.18;9.40;;;;;;;;;;5024548;28;20063;-81
2021/03/16 05:53:59;;;;;;;12.75;10.10;;;;;;;;;;5049302;28;20033;-81
2021/03/16 05:56:26;;;;;;;11.02;9.50;;;;;;;;;;5048735;28;20026;-82
2021/03/16 05:58:55;;;;;;;10.98;9.13;;;;;;;;;;5043927;28;20037;-82
2021/03/16 06:01:22;;;;;;;11.40;10.27;;;;;;;;;;5014029;28;20034;-81
2021/03/16 06:03:48;;;;;;;11.38;9.90;;;;;;;;;;5020407;28;20029;-82
2021/03/16 06:06:14;;;;;;;13.23;9.80;;;;;;;;;;5019713;28;20403;-82
2021/03/16 06:08:40;;;;;;;12.93;9.88;;;;;;;;;;5034020;28;20025;-81
2021/03/16 06:11:07;;;;;;;11.35;10.25;;;;;;;;;;5033700;28;20085;-82
2021/03/16 06:16:57;;;;;;;10.77;9.63;;;;;;;;;;5048883;28;20067;-87
2021/03/16 06:20:25;;;;;;;11.55;10.32;;;;;;;;;;5047598;28;20048;-86
2021/03/16 06:23:40;;;;;;;11.82;10.02;;;;;;;;;;5057210;28;20097;-87
2021/03/16 06:30:09;;;;;;;10.23;9.18;;;;;;;;;;5038554;28;20072;-86
2021/03/16 06:33:21;;;;;;;13.15;10.15;;;;;;;;;;5043956;28;20021;-86
2021/03/16 06:36:11;;;;;;;11.43;9.32;;;;;;;;;;5057930;28;20017;-86
2021/03/16 06:39:07;;;;;;;12.77;9.55;;;;;;;;;;4980394;28;20035;-86
2021/03/16 06:41:51;;;;;;;11.68;10.15;;;;;;;;;;4995094;28;20045;-85
2021/03/16 06:44:42;;;;;;;11.10;9.90;;;;;;;;;;4978055;28;20110;-84
2021/03/16 06:50:39;;;;;;;12.27;10.48;;;;;;;;;;4995894;28;20050;-87
2021/03/16 06:53:37;;;;;;;11.35;9.40;;;;;;;;;;4928518;29;20045;-87
2021/03/16 06:57:00;;;;;;;14.43;9.65;;;;;;;;;;4902773;29;20069;-85
2021/03/16 07:00:03;;;;;;;11.30;9.73;;;;;;;;;;4919662;29;20057;-86
2021/03/16 07:05:46;;;;;;;10.82;9.73;;;;;;;;;;4919291;29;20117;-86
2021/03/16 07:09:27;;;;;;;12.32;10.65;;;;;;;;;;4908027;29;20032;-86
2021/03/16 07:12:05;;;;;;;13.05;9.00;;;;;;;;;;4931116;29;20051;-85
2021/03/16 07:15:00;;;;;;;9.75;8.20;;;;;;;;;;4957964;29;20099;-86
2021/03/16 07:17:49;;;;;;;9.60;8.32;;;;;;;;;;4927264;29;20055;-87
2021/03/16 07:20:58;;;;;;;11.65;8.13;;;;;;;;;;4962014;29;20497;-87
2021/03/16 07:23:56;;;;;;;10.60;7.72;;;;;;;;;;4945916;29;20043;-88
2021/03/16 07:26:55;;;;;;;9.75;7.78;;;;;;;;;;4920942;29;20053;-86
2021/03/16 07:29:27;;;;;;;10.15;7.68;;;;;;;;;;4917763;29;20041;-87
2021/03/16 07:32:45;;;;;;;10.00;8.10;;;;;;;;;;4883307;29;20020;-86
2021/03/16 07:36:16;;;;;;;11.05;7.95;;;;;;;;;;4908933;29;20036;-86
2021/03/16 07:39:41;;;;;;;10.18;7.70;;;;;;;;;;4901336;29;20065;-88
2021/03/16 07:43:19;;;;;;;10.85;8.10;;;;;;;;;;4879830;29;20090;-86
2021/03/16 07:58:18;;;;;;;10.07;7.32;;;;;;;;;;5766778;22;20061;-85
2021/03/16 08:01:09;;;;;;;;;;;;;;;;;;5053826;28;20041;-83
2021/03/16 08:04:13;;;;;;;10.50;7.75;;;;;;;;;;5015689;28;19972;-84
2021/03/16 08:07:25;;;;;;;11.10;7.57;;;;;;;;;;5014627;28;20018;-84
2021/03/16 08:10:25;;;;;;;8.90;6.93;;;;;;;;;;5015067;28;20033;-85
2021/03/16 08:13:03;;;;;;;8.57;6.95;;;;;;;;;;5115868;23;20042;-82
2021/03/16 08:15:56;;;;;;;11.25;7.93;;;;;;;;;;5030612;28;20046;-83
2021/03/16 08:18:58;;;;;;;10.85;7.18;;;;;;;;;;5055697;28;20083;-82
2021/03/16 08:21:28;;;;;;;;;;;;;;;;;;5055895;28;20021;-83
2021/03/16 08:24:35;;;;;;;9.32;6.63;;;;;;;;;;5039463;28;19948;-82
2021/03/16 08:27:35;;;;;;;8.75;6.65;;;;;;;;;;5013729;28;20017;-84
2021/03/16 08:30:11;;;;;;;9.85;6.85;;;;;;;;;;5012552;28;20044;-83
2021/03/16 08:33:23;;;;;;;10.60;7.47;;;;;;;;;;4977293;28;20039;-82
2021/03/16 08:36:07;;;;;;;8.30;6.55;;;;;;;;;;4988742;28;20047;-84
2021/03/16 08:38:34;;;;;;;12.25;7.53;;;;;;;;;;4978158;28;20035;-84
2021/03/16 08:41:39;;;;;;;10.32;6.60;;;;;;;;;;4961762;28;20034;-83
2021/03/16 08:45:37;;;;;;;8.57;5.90;;;;;;;;;;4992246;28;20050;-83
2021/03/16 08:48:50;;;;;;;8.65;6.18;;;;;;;;;;4955166;29;20031;-85
2021/03/16 08:51:41;;;;;;;12.43;7.13;;;;;;;;;;4955728;29;20040;-83
2021/03/16 08:54:44;;;;;;;10.00;6.43;;;;;;;;;;4957612;28;20031;-83
2021/03/16 08:58:14;;;;;;;9.07;6.40;;;;;;;;;;4942086;29;20059;-83
2021/03/16 09:01:00;;;;;;;6.63;5.22;;;;;;;;;;4879968;29;20068;-83
2021/03/16 09:03:51;;;;;;;11.18;6.18;;;;;;;;;;4881486;29;20032;-85
2021/03/16 09:06:30;;;;;;;;;;;;;;;;;;4918878;29;20079;-82
2021/03/16 09:09:25;;;;;;;7.07;4.60;;;;;;;;;;4919063;29;19920;-84
2021/03/16 09:12:09;;;;;;;7.15;4.13;;;;;;;;;;4885214;29;20041;-84
2021/03/16 09:15:45;;;;;;;7.13;3.85;;;;;;;;;;4877708;29;20104;-85
2021/03/16 09:18:43;;;;;;;7.45;3.97;;;;;;;;;;4866013;29;20054;-81
2021/03/16 09:21:54;;;;;;;7.43;4.00;;;;;;;;;;4865949;29;20041;-83
2021/03/16 09:24:51;;;;;;;6.68;3.33;;;;;;;;;;4869002;29;20054;-83
2021/03/16 09:31:24;;;;;;;3.85;2.80;;;;;;;;;;4883930;29;20127;-83
2021/03/16 09:34:27;;;;;;;5.60;3.13;;;;;;;;;;4921481;29;20028;-83
2021/03/16 09:37:21;;;;;;;5.35;3.03;;;;;;;;;;4957613;29;20080;-82
2021/03/16 09:40:24;;;;;;;3.10;2.60;;;;;;;;;;4961824;29;20023;-84
2021/03/16 09:42:50;;;;;;;;;;;;;;;;;;4927478;29;20039;-82
2021/03/16 09:45:40;;;;;;;2.55;1.90;;;;;;;;;;4941589;29;20187;-85
2021/03/16 09:49:06;;;;;;;7.13;2.15;;;;;;;;;;4960051;29;20063;-83
2021/03/16 09:52:18;;;;;;;5.85;3.63;;;;;;;;;;4957225;29;20043;-83
2021/03/16 09:55:24;;;;;;;4.60;2.22;;;;;;;;;;4943305;28;20035;-83
2021/03/16 09:58:43;;;;;;;4.15;2.83;;;;;;;;;;4959266;29;20024;-83
2021/03/16 10:01:56;;;;;;;5.55;2.40;;;;;;;;;;4937057;29;20042;-84
2021/03/16 10:05:05;;;;;;;3.17;1.80;;;;;;;;;;4912536;29;20043;-85
2021/03/16 10:08:41;;;;;;;4.28;2.38;;;;;;;;;;4921356;29;20037;-84
2021/03/16 10:11:45;;;;;;;5.40;2.80;;;;;;;;;;4922558;29;20048;-85
2021/03/16 10:14:56;;;;;;;3.85;2.13;;;;;;;;;;4920684;29;20055;-83
2021/03/16 10:17:38;;;;;;;5.32;2.28;;;;;;;;;;4920604;29;20096;-83
2021/03/16 10:20:49;;;;;;;7.95;2.17;;;;;;;;;;4920975;29;20053;-83
2021/03/16 10:23:57;;;;;;;5.22;2.67;;;;;;;;;;4920757;29;20032;-83
2021/03/16 10:30:32;;;;;;;7.20;3.72;;;;;;;;;;4922095;29;20054;-83
2021/03/16 10:33:30;;;;;;;4.75;2.75;;;;;;;;;;4939986;29;20031;-83
2021/03/16 10:36:54;;;;;;;5.38;2.33;;;;;;;;;;4961997;28;20083;-84
2021/03/16 10:39:59;;;;;;;3.13;2.03;;;;;;;;;;4996595;28;20035;-83
2021/03/16 10:42:53;;;;;;;2.85;1.90;;;;;;;;;;4984769;28;20042;-83
2021/03/16 10:45:57;;;;;;;2.75;1.60;;;;;;;;;;4995845;28;20042;-84
2021/03/16 10:49:05;;;;;;;4.80;1.73;;;;;;;;;;5003623;28;20046;-82
2021/03/16 10:51:55;;;;;;;4.47;2.10;;;;;;;;;;4999093;28;20094;-82
2021/03/16 10:54:29;;;;;;;2.87;1.80;;;;;;;;;;5002970;28;20078;-84
2021/03/16 10:57:16;;;;;;;3.58;1.80;;;;;;;;;;4980479;28;20109;-84
2021/03/16 11:00:34;;;;;;;2.70;1.85;;;;;;;;;;4981613;28;20062;-83
2021/03/16 11:11:10;;;;;;;5.32;1.90;;;;;;;;;;5970679;22;20057;-82
2021/03/16 11:14:14;;;;;;;3.08;2.00;;;;;;;;;;5093375;28;20043;-82
2021/03/16 11:16:49;;;;;;;3.63;2.10;;;;;;;;;;5044480;28;20045;-82
2021/03/16 11:19:29;;;;;;;3.05;1.95;;;;;;;;;;5053445;28;20044;-83
2021/03/16 11:22:21;;;;;;;3.42;1.83;;;;;;;;;;5075035;28;20045;-83
2021/03/16 11:25:13;;;;;;;4.72;2.20;;;;;;;;;;5027279;28;20055;-83
2021/03/16 11:28:10;;;;;;;4.13;2.05;;;;;;;;;;5022386;28;20021;-82
2021/03/16 11:30:37;;;;;;;4.20;1.80;;;;;;;;;;5084470;28;20055;-80
2021/03/16 11:33:16;;;;;;;2.67;2.05;;;;;;;;;;5042768;28;20040;-81
2021/03/16 11:35:53;;;;;;;3.85;2.00;;;;;;;;;;5059363;28;20040;-81
2021/03/16 11:38:26;;;;;;;4.03;1.88;;;;;;;;;;5066812;28;20051;-81
2021/03/16 11:40:56;;;;;;;3.42;2.08;;;;;;;;;;5047884;28;20052;-81
2021/03/16 11:43:24;;;;;;;3.85;1.90;;;;;;;;;;5031512;28;20032;-81
2021/03/16 11:45:56;;;;;;;2.90;1.88;;;;;;;;;;5068254;28;20095;-82
2021/03/16 11:48:29;;;;;;;3.70;2.00;;;;;;;;;;5076714;28;20035;-82
2021/03/16 11:50:55;;;;;;;3.67;2.30;;;;;;;;;;5037287;28;20495;-81
2021/03/16 11:53:24;;;;;;;3.55;1.90;;;;;;;;;;5032838;28;20037;-81
2021/03/16 11:55:52;;;;;;;2.70;1.90;;;;;;;;;;5066109;28;20036;-81
2021/03/16 11:58:19;;;;;;;3.90;1.77;;;;;;;;;;5052829;28;20040;-81
2021/03/16 12:00:46;;;;;;;4.40;1.55;;;;;;;;;;5046576;28;20025;-82
2021/03/16 12:03:12;;;;;;;3.20;1.70;;;;;;;;;;5037653;28;20036;-82
2021/03/16 12:05:39;;;;;;;4.22;1.70;;;;;;;;;;5054514;28;20040;-82
2021/03/16 12:08:05;;;;;;;2.28;1.55;;;;;;;;;;5051563;28;20518;-82
2021/03/16 12:10:30;;;;;;;3.97;1.85;;;;;;;;;;5032827;28;20051;-82
2021/03/16 12:12:56;;;;;;;2.60;1.70;;;;;;;;;;5039723;28;20044;-82
2021/03/16 12:15:23;;;;;;;4.28;2.10;;;;;;;;;;5043135;28;20462;-83
2021/03/16 12:17:48;;;;;;;3.38;1.80;;;;;;;;;;5070332;28;20024;-81
2021/03/16 12:20:14;;;;;;;4.30;1.98;;;;;;;;;;5066442;28;20036;-81
2021/03/16 12:22:41;;;;;;;3.13;1.95;;;;;;;;;;5047733;28;20032;-82
2021/03/16 12:25:12;;;;;;;3.78;1.98;;;;;;;;;;5065474;28;20063;-82
2021/03/16 12:27:37;;;;;;;3.55;1.58;;;;;;;;;;5066181;28;20044;-82
2021/03/16 12:30:08;;;;;;;1.88;1.50;;;;;;;;;;5086228;28;20103;-82
2021/03/16 12:32:38;;;;;;;3.03;1.53;;;;;;;;;;5062847;28;20051;-84
2021/03/16 12:35:14;;;;;;;3.53;1.70;;;;;;;;;;5049647;28;20419;-82
2021/03/16 12:37:41;;;;;;;5.35;2.20;;;;;;;;;;5085664;28;20053;-82
2021/03/16 12:40:07;;;;;;;9.18;5.75;;;;;;;;;;5084100;28;20024;-82
2021/03/16 12:42:33;;;;;;;2.75;2.25;;;;;;;;;;5063028;28;20021;-84
2021/03/16 12:45:06;;;;;;;4.40;1.83;;;;;;;;;;5065894;28;20092;-82
2021/03/16 12:47:32;;;;;;;4.20;2.45;;;;;;;;;;5062822;28;20131;-82
2021/03/16 12:49:57;;;;;;;2.55;1.70;;;;;;;;;;5049313;28;20024;-82
2021/03/16 12:52:25;;;;;;;5.00;3.25;;;;;;;;;;5050911;28;20020;-82
2021/03/16 12:54:52;;;;;;;3.65;1.65;;;;;;;;;;5050988;28;20018;-82
2021/03/16 12:57:24;;;;;;;7.35;2.10;;;;;;;;;;5065839;28;20032;-83
2021/03/16 12:59:49;;;;;;;4.97;2.25;;;;;;;;;;5051354;28;20547;-82
2021/03/16 13:02:15;;;;;;;3.85;1.90;;;;;;;;;;5067942;28;20088;-83
2021/03/16 13:04:41;;;;;;;4.00;1.90;;;;;;;;;;5067053;28;20029;-82
2021/03/16 13:07:07;;;;;;;4.30;1.80;;;;;;;;;;5051475;28;20025;-83
2021/03/16 13:09:34;;;;;;;3.80;1.70;;;;;;;;;;5051117;28;20032;-82
2021/03/16 13:12:07;;;;;;;4.97;1.65;;;;;;;;;;5058193;28;20052;-83
2021/03/16 13:14:36;;;;;;;3.60;1.70;;;;;;;;;;5064330;28;20029;-82
2021/03/16 13:17:02;;;;;;;2.55;1.50;;;;;;;;;;5048492;28;20406;-82
2021/03/16 13:19:30;;;;;;;2.78;1.50;;;;;;;;;;5063371;28;20470;-83
2021/03/16 13:21:57;;;;;;;1.52;1.20;;;;;;;;;;5032077;28;20060;-82
2021/03/16 13:24:24;;;;;;;2.42;1.67;;;;;;;;;;5045934;28;20029;-82
2021/03/16 13:26:50;;;;;;;4.53;1.73;;;;;;;;;;5046840;28;20021;-82
2021/03/16 13:29:16;;;;;;;3.33;1.52;;;;;;;;;;5064483;28;20101;-81
2021/03/16 13:31:42;;;;;;;2.67;1.60;;;;;;;;;;5064114;28;20024;-83
2021/03/16 13:34:07;;;;;;;3.15;1.65;;;;;;;;;;5066450;28;20036;-82
2021/03/16 13:36:33;;;;;;;1.83;1.30;;;;;;;;;;5046222;28;20037;-83
2021/03/16 13:38:59;;;;;;;2.97;1.60;;;;;;;;;;5030780;28;20025;-84
2021/03/16 13:41:26;;;;;;;3.15;1.60;;;;;;;;;;5045276;28;20060;-82
2021/03/16 13:43:59;;;;;;;3.67;1.40;;;;;;;;;;5030956;28;20028;-83
2021/03/16 13:46:26;;;;;;;4.57;1.42;;;;;;;;;;5052484;28;20044;-83
2021/03/16 13:48:51;;;;;;;3.05;1.50;;;;;;;;;;5048884;28;20024;-82
2021/03/16 13:51:17;;;;;;;2.72;1.70;;;;;;;;;;5064507;28;20021;-82
2021/03/16 13:53:49;;;;;;;3.78;1.40;;;;;;;;;;5033178;28;20068;-83
2021/03/16 13:56:17;;;;;;;3.95;1.75;;;;;;;;;;5048785;28;20025;-83
2021/03/16 13:58:44;;;;;;;3.55;1.58;;;;;;;;;;5036054;28;20037;-82
2021/03/16 14:01:11;;;;;;;3.20;1.20;;;;;;;;;;5034266;28;20483;-83
2021/03/16 14:03:37;;;;;;;5.25;1.60;;;;;;;;;;5045394;28;20028;-82
2021/03/16 14:06:04;;;;;;;3.10;1.30;;;;;;;;;;5048535;28;20036;-81
2021/03/16 14:08:30;;;;;;;2.85;1.20;;;;;;;;;;5047048;28;20079;-83
2021/03/16 14:11:00;;;;;;;3.00;1.20;;;;;;;;;;5030055;28;20024;-83
2021/03/16 14:13:26;;;;;;;2.28;1.30;;;;;;;;;;5048692;28;20407;-83
2021/03/16 14:15:51;;;;;;;3.95;1.20;;;;;;;;;;5068369;28;20037;-83
2021/03/16 14:18:20;;;;;;;3.78;1.58;;;;;;;;;;5036714;28;20028;-83
2021/03/16 14:20:47;;;;;;;3.33;1.58;;;;;;;;;;5053081;28;20068;-84
2021/03/16 14:23:17;;;;;;;3.13;1.40;;;;;;;;;;5051675;28;20037;-83
2021/03/16 14:25:44;;;;;;;3.95;1.38;;;;;;;;;;5065787;28;20059;-82
2021/03/16 14:28:12;;;;;;;2.80;1.45;;;;;;;;;;5066343;28;20051;-82
2021/03/16 14:30:38;;;;;;;4.07;1.33;;;;;;;;;;5049185;28;20443;-83
2021/03/16 14:33:05;;;;;;;2.80;1.50;;;;;;;;;;5061951;28;20017;-82
2021/03/16 14:35:35;;;;;;;2.78;1.40;;;;;;;;;;5046935;28;20028;-82
2021/03/16 14:38:01;;;;;;;2.92;1.30;;;;;;;;;;5066089;28;20103;-82
2021/03/16 14:40:27;;;;;;;4.32;1.45;;;;;;;;;;5030432;28;20025;-83
2021/03/16 14:42:54;;;;;;;3.80;1.70;;;;;;;;;;5044542;28;20395;-82
2021/03/16 14:45:20;;;;;;;2.45;1.40;;;;;;;;;;5033389;28;20491;-83
2021/03/16 14:47:46;;;;;;;4.50;1.50;;;;;;;;;;5039103;28;20025;-82
2021/03/16 14:50:12;;;;;;;2.33;1.30;;;;;;;;;;5041803;28;20017;-81
2021/03/16 14:52:38;;;;;;;2.75;1.80;;;;;;;;;;5060069;28;20029;-83
2021/03/16 14:55:07;;;;;;;4.88;1.70;;;;;;;;;;5045176;28;20016;-84
2021/03/16 14:57:33;;;;;;;4.68;1.70;;;;;;;;;;5032872;28;20515;-82
2021/03/16 14:59:58;;;;;;;2.13;1.30;;;;;;;;;;5066910;28;20017;-82
2021/03/16 15:02:24;;;;;;;5.22;1.80;;;;;;;;;;5056774;28;20033;-82
2021/03/16 15:04:50;;;;;;;3.67;1.60;;;;;;;;;;5043978;28;20118;-81
2021/03/16 15:07:15;;;;;;;4.53;1.60;;;;;;;;;;5079498;28;20040;-82
2021/03/16 15:09:41;;;;;;;3.25;1.70;;;;;;;;;;5079143;28;20111;-83
2021/03/16 15:12:08;;;;;;;3.70;1.58;;;;;;;;;;5043052;28;20045;-83
2021/03/16 15:14:33;;;;;;;2.67;1.50;;;;;;;;;;5042339;28;20111;-81
2021/03/16 15:17:00;;;;;;;2.92;1.55;;;;;;;;;;5024969;28;20028;-82
2021/03/16 15:19:26;;;;;;;3.60;1.60;;;;;;;;;;5024793;28;20049;-82
2021/03/16 15:21:51;;;;;;;3.28;1.50;;;;;;;;;;5040732;28;20021;-82
2021/03/16 15:24:17;;;;;;;3.05;1.60;;;;;;;;;;5041472;28;20548;-82
2021/03/16 15:26:44;;;;;;;3.20;1.25;;;;;;;;;;5042752;28;20036;-83
2021/03/16 15:29:11;;;;;;;3.38;1.50;;;;;;;;;;5009383;28;20132;-83
2021/03/16 15:31:37;;;;;;;7.40;1.90;;;;;;;;;;5076667;28;20107;-82
2021/03/16 15:34:05;;;;;;;4.18;1.60;;;;;;;;;;5080479;28;20028;-82
2021/03/16 15:36:41;;;;;;;3.90;1.48;;;;;;;;;;5048837;28;20051;-84
2021/03/16 15:39:12;;;;;;;3.22;1.40;;;;;;;;;;5046307;28;20091;-83
2021/03/16 15:41:45;;;;;;;2.47;1.50;;;;;;;;;;5070099;28;20044;-82
2021/03/16 15:44:15;;;;;;;3.80;1.50;;;;;;;;;;5086837;28;20024;-82
2021/03/16 15:46:42;;;;;;;2.58;1.13;;;;;;;;;;5075064;28;20040;-83
2021/03/16 15:49:11;;;;;;;2.85;1.00;;;;;;;;;;5053642;28;20032;-81
2021/03/16 15:51:37;;;;;;;2.50;1.13;;;;;;;;;;5057998;28;20059;-82
2021/03/16 15:54:08;;;;;;;2.42;1.10;;;;;;;;;;5050385;28;20028;-83
2021/03/16 15:56:34;;;;;;;4.03;1.50;;;;;;;;;;5044732;28;20094;-82
2021/03/16 15:58:59;;;;;;;3.42;1.50;;;;;;;;;;5076672;28;20020;-82
2021/03/16 16:01:25;;;;;;;4.35;1.80;;;;;;;;;;5047668;28;20036;-82
2021/03/16 16:03:51;;;;;;;3.08;1.45;;;;;;;;;;5056554;28;20024;-83
2021/03/16 16:06:18;;;;;;;3.92;1.60;;;;;;;;;;5057560;28;20315;-82
2021/03/16 16:08:43;;;;;;;2.63;1.40;;;;;;;;;;5056976;28;20036;-81
2021/03/16 16:11:09;;;;;;;3.10;1.50;;;;;;;;;;5047286;28;20029;-82
2021/03/16 16:13:35;;;;;;;4.55;1.40;;;;;;;;;;5041175;28;20032;-82
2021/03/16 16:16:01;;;;;;;3.47;1.55;;;;;;;;;;5038806;28;20037;-82
2021/03/16 16:18:27;;;;;;;3.72;1.70;;;;;;;;;;5031680;28;20040;-82
2021/03/16 16:20:53;;;;;;;3.15;1.50;;;;;;;;;;5034036;28;20029;-82
2021/03/16 16:23:18;;;;;;;3.13;1.30;;;;;;;;;;5052478;28;20539;-82
2021/03/16 16:25:45;;;;;;;3.15;1.45;;;;;;;;;;5024385;28;20025;-81
2021/03/16 16:28:11;;;;;;;2.22;1.20;;;;;;;;;;5059136;28;20021;-82
2021/03/16 16:30:41;;;;;;;2.92;1.23;;;;;;;;;;5037945;28;20025;-82